Eloi Mendes, Brazil
Current Conditions -  °F | °C
As of 4:00 PM on Tuesday 21 Oct 2014 (Local Time) from SBGW Reporting Station
Overcast Overcast  
Wind Chill: 70°   Ceiling: 1700
Heat Index: 70°   Visibility: 4mi
Dew Point: 57°   Wind: 2mph
Humidity: 64%   Direction: 250°WSW
Pressure: 30.12"   Gusts: NA
Location:  21.61°S, 45.57°W
Report Text: SBGW 211800Z 25002KT 7000 BKN017 OVC037 21/14 Q1020
Loading
Personal Weather Stations






























Interactive Weather Map
Tropical Storm Tracking
New forecast layout! Learn more

10-Day Weather Forecast

Advertisements
Track Severe Weather on mobile